createdAt,value
2023-05-22T00:02:23.123Z,21.27
2023-05-22T00:04:51.162Z,21.40
2023-05-22T00:07:18.440Z,21.15
2023-05-22T00:09:46.551Z,21.27
2023-05-22T00:12:13.833Z,20.35
2023-05-22T00:14:41.061Z,20.35
2023-05-22T00:17:10.317Z,21.20
2023-05-22T00:19:38.313Z,22.10
2023-05-22T00:22:06.120Z,20.65
2023-05-22T00:24:33.462Z,22.05
2023-05-22T00:27:00.966Z,20.40
2023-05-22T00:29:28.286Z,20.58
2023-05-22T00:31:57.459Z,20.20
2023-05-22T00:34:24.851Z,18.60
2023-05-22T00:36:52.191Z,17.98
2023-05-22T00:39:19.530Z,18.73
2023-05-22T00:41:47.160Z,18.52
2023-05-22T00:44:14.487Z,18.52
2023-05-22T00:46:43.260Z,18.05
2023-05-22T00:49:10.748Z,19.92
2023-05-22T00:51:38.117Z,20.00
2023-05-22T00:54:06.205Z,19.20
2023-05-22T00:56:33.968Z,17.13
2023-05-22T00:59:01.478Z,18.40
2023-05-22T01:01:33.454Z,17.25
2023-05-22T01:04:02.094Z,18.33
2023-05-22T01:06:32.107Z,16.85
2023-05-22T01:08:59.542Z,17.15
2023-05-22T01:11:51.339Z,16.45
2023-05-22T01:14:40.419Z,16.20
2023-05-22T01:17:23.565Z,16.70
2023-05-22T01:20:24.394Z,16.55
2023-05-22T01:23:27.022Z,16.35
2023-05-22T01:26:24.699Z,16.70
2023-05-22T01:29:01.289Z,15.60
2023-05-22T01:31:31.456Z,17.55
2023-05-22T01:34:02.549Z,17.77
2023-05-22T01:36:35.075Z,17.95
2023-05-22T01:39:06.171Z,17.40
2023-05-22T01:41:34.825Z,18.25
2023-05-22T01:44:02.796Z,18.08
2023-05-22T01:46:31.106Z,18.52
2023-05-22T01:48:59.488Z,18.15
2023-05-22T01:51:53.622Z,17.77
2023-05-22T01:54:24.605Z,19.77
2023-05-22T01:56:57.621Z,19.95
2023-05-22T01:59:34.312Z,17.80
2023-05-22T02:02:06.421Z,17.40
2023-05-22T02:04:39.833Z,18.58
2023-05-22T02:07:12.054Z,18.85
2023-05-22T02:09:41.120Z,18.38
2023-05-22T02:12:09.079Z,17.42
2023-05-22T02:14:37.525Z,17.88
2023-05-22T02:17:05.774Z,18.02
2023-05-22T02:19:35.610Z,18.67
2023-05-22T02:22:03.727Z,18.73
2023-05-22T02:24:31.654Z,17.55
2023-05-22T02:26:59.203Z,18.88
2023-05-22T02:29:26.535Z,21.67
2023-05-22T02:31:54.648Z,19.73
2023-05-22T02:34:21.928Z,19.75
2023-05-22T02:36:50.888Z,20.55
2023-05-22T02:39:19.391Z,19.10
2023-05-22T02:41:46.691Z,21.05
2023-05-22T02:44:14.070Z,21.13
2023-05-22T02:46:41.496Z,22.52
2023-05-22T02:49:08.973Z,21.48
2023-05-22T02:51:36.726Z,22.60
2023-05-22T02:54:04.001Z,21.92
2023-05-22T02:56:31.358Z,22.17
2023-05-22T02:58:58.765Z,22.85
2023-05-22T03:01:30.475Z,21.95
2023-05-22T03:03:58.072Z,22.35
2023-05-22T03:06:25.449Z,23.27
2023-05-22T03:08:54.000Z,25.75
2023-05-22T03:11:21.578Z,22.92
2023-05-22T03:13:48.880Z,22.23
2023-05-22T03:16:16.291Z,24.20
2023-05-22T03:18:46.342Z,25.38
2023-05-22T03:21:13.641Z,24.50
2023-05-22T03:23:41.041Z,25.55
2023-05-22T03:26:08.287Z,25.83
2023-05-22T03:28:38.144Z,24.17
2023-05-22T03:31:05.863Z,23.20
2023-05-22T03:33:41.597Z,24.92
2023-05-22T03:36:09.658Z,23.65
2023-05-22T03:38:37.150Z,23.70
2023-05-22T03:41:04.576Z,21.27
2023-05-22T03:43:31.845Z,22.15
2023-05-22T03:45:59.427Z,23.08
2023-05-22T03:48:28.099Z,21.92
2023-05-22T03:50:55.550Z,22.90
2023-05-22T03:53:22.952Z,22.05
2023-05-22T03:55:50.440Z,22.75
2023-05-22T03:58:17.796Z,21.10
2023-05-22T04:00:46.294Z,21.38
2023-05-22T04:03:13.586Z,19.77
2023-05-22T04:05:41.122Z,19.63
2023-05-22T04:08:08.468Z,19.02
2023-05-22T04:10:39.135Z,19.42
2023-05-22T04:13:06.805Z,18.85
2023-05-22T04:15:34.190Z,18.40
2023-05-22T04:18:01.641Z,17.70
2023-05-22T04:20:28.941Z,18.08
2023-05-22T04:22:57.599Z,18.73
2023-05-22T04:25:24.828Z,17.13
2023-05-22T04:27:53.363Z,18.35
2023-05-22T04:30:22.063Z,18.95
2023-05-22T04:32:49.955Z,18.02
2023-05-22T04:35:18.541Z,19.25
2023-05-22T04:37:46.072Z,18.15
2023-05-22T04:40:15.192Z,20.83
2023-05-22T04:42:42.945Z,18.92
2023-05-22T04:45:10.940Z,20.88
2023-05-22T04:47:41.707Z,20.35
2023-05-22T04:50:09.782Z,20.30
2023-05-22T04:52:37.321Z,21.02
2023-05-22T04:55:06.891Z,22.80
2023-05-22T04:57:34.209Z,21.77
2023-05-22T05:00:01.811Z,19.98
2023-05-22T05:02:32.721Z,22.58
2023-05-22T05:05:00.125Z,21.17
2023-05-22T05:07:27.870Z,20.98
2023-05-22T05:09:55.141Z,22.58
2023-05-22T05:12:22.601Z,23.10
2023-05-22T05:14:50.886Z,22.05
2023-05-22T05:17:18.219Z,20.75
2023-05-22T05:19:45.446Z,20.75
2023-05-22T05:22:12.737Z,23.02
2023-05-22T05:24:40.256Z,22.38
2023-05-22T05:27:07.683Z,21.38
2023-05-22T05:29:35.511Z,22.48
2023-05-22T05:32:09.187Z,21.65
2023-05-22T05:34:59.558Z,23.33
2023-05-22T05:37:41.658Z,22.95
2023-05-22T05:40:09.737Z,23.00
2023-05-22T05:42:40.684Z,22.55
2023-05-22T05:45:10.560Z,23.75
2023-05-22T05:47:37.866Z,24.70
2023-05-22T05:50:06.262Z,23.45
2023-05-22T05:52:35.102Z,25.30
2023-05-22T05:55:08.929Z,25.52
2023-05-22T05:57:36.391Z,25.25
2023-05-22T06:00:05.867Z,21.65
2023-05-22T06:02:42.411Z,23.40
2023-05-22T06:05:35.828Z,22.63
2023-05-22T06:08:15.458Z,23.98
2023-05-22T06:10:42.716Z,26.75
2023-05-22T06:13:16.193Z,27.02
2023-05-22T06:15:43.599Z,27.35
2023-05-22T06:18:11.052Z,28.40
2023-05-22T06:20:40.223Z,28.60
2023-05-22T06:23:07.963Z,28.98
2023-05-22T06:25:35.373Z,28.95
2023-05-22T06:28:04.490Z,29.77
2023-05-22T06:30:39.704Z,29.40
2023-05-22T06:33:11.854Z,29.73
2023-05-22T06:35:40.988Z,28.20
2023-05-22T06:38:08.604Z,28.55
2023-05-22T06:40:36.139Z,29.77
2023-05-22T06:43:11.268Z,29.58
2023-05-22T06:45:45.554Z,28.27
2023-05-22T06:48:36.388Z,30.27
2023-05-22T06:51:12.731Z,28.08
2023-05-22T06:53:41.446Z,31.65
2023-05-22T06:56:19.550Z,31.52
2023-05-22T06:58:54.432Z,30.00
2023-05-22T07:01:25.321Z,33.67
2023-05-22T07:04:05.287Z,31.48
2023-05-22T07:06:39.059Z,31.05
2023-05-22T07:09:08.246Z,33.03
2023-05-22T07:11:35.962Z,34.55
2023-05-22T07:14:03.636Z,30.13
2023-05-22T07:16:31.502Z,30.50
2023-05-22T07:18:59.330Z,30.38
2023-05-22T07:21:27.086Z,29.90
2023-05-22T07:23:55.782Z,33.70
2023-05-22T07:26:23.673Z,30.35
2023-05-22T07:29:01.057Z,33.00
2023-05-22T07:31:29.036Z,31.88
2023-05-22T07:33:56.448Z,33.25
2023-05-22T07:36:23.763Z,30.77
2023-05-22T07:38:51.082Z,32.22
2023-05-22T07:41:18.456Z,33.28
2023-05-22T07:43:45.758Z,32.72
2023-05-22T07:46:16.646Z,32.80
2023-05-22T07:48:55.645Z,34.78
2023-05-22T07:51:23.134Z,37.05
2023-05-22T07:53:52.259Z,36.05
2023-05-22T07:56:19.537Z,38.33
2023-05-22T07:58:48.810Z,37.08
2023-05-22T08:01:19.279Z,33.08
2023-05-22T08:03:46.730Z,34.97
2023-05-22T08:06:16.175Z,35.85
2023-05-22T08:08:43.558Z,34.38
2023-05-22T08:11:11.106Z,34.42
2023-05-22T08:13:38.829Z,34.65
2023-05-22T08:16:07.027Z,38.40
2023-05-22T08:18:34.823Z,37.05
2023-05-22T08:21:02.105Z,37.30
2023-05-22T08:23:30.025Z,41.83
2023-05-22T08:25:58.286Z,39.30
2023-05-22T08:28:25.689Z,37.17
2023-05-22T08:30:54.462Z,36.63
2023-05-22T08:33:22.048Z,37.30
2023-05-22T08:35:49.449Z,37.03
2023-05-22T08:38:17.504Z,36.67
2023-05-22T08:40:48.723Z,36.50
2023-05-22T08:43:16.252Z,36.65
2023-05-22T08:45:44.136Z,37.15
2023-05-22T08:48:17.689Z,40.15
2023-05-22T08:50:47.753Z,41.13
2023-05-22T08:53:16.680Z,39.50
2023-05-22T08:55:44.040Z,38.55
2023-05-22T08:58:12.271Z,39.03
2023-05-22T09:00:39.945Z,35.53
2023-05-22T09:03:10.172Z,38.58
2023-05-22T09:05:37.665Z,39.17
2023-05-22T09:08:16.066Z,37.78
2023-05-22T09:10:47.812Z,39.38
2023-05-22T09:13:28.376Z,37.13
2023-05-22T09:16:12.073Z,34.60
2023-05-22T09:18:40.491Z,28.98
2023-05-22T09:21:21.607Z,27.00
2023-05-22T09:24:01.134Z,26.15
2023-05-22T09:26:32.975Z,24.63
2023-05-22T09:29:01.176Z,25.58
2023-05-22T09:31:29.549Z,28.83
2023-05-22T09:33:57.269Z,25.92
2023-05-22T09:36:32.371Z,29.85
2023-05-22T09:39:04.372Z,26.98
2023-05-22T09:41:36.560Z,27.45
2023-05-22T09:44:14.224Z,24.50
2023-05-22T09:46:46.416Z,25.23
2023-05-22T09:49:16.543Z,23.30
2023-05-22T09:51:48.035Z,26.55
2023-05-22T09:54:16.298Z,27.40
2023-05-22T09:56:44.669Z,25.90
2023-05-22T09:59:13.854Z,26.60
2023-05-22T10:01:42.613Z,27.80
2023-05-22T10:04:16.599Z,26.05
2023-05-22T10:06:50.834Z,28.42
2023-05-22T10:09:21.376Z,26.38
2023-05-22T10:11:51.590Z,25.48
2023-05-22T10:14:19.152Z,27.77
2023-05-22T10:16:47.156Z,29.02
2023-05-22T10:19:14.880Z,26.73
2023-05-22T10:21:42.352Z,25.08
2023-05-22T10:24:10.951Z,28.55
2023-05-22T10:26:39.108Z,28.60
2023-05-22T10:29:17.840Z,31.10
2023-05-22T10:32:14.835Z,31.13
2023-05-22T10:35:26.582Z,30.15
2023-05-22T10:37:56.590Z,26.67
2023-05-22T10:40:32.619Z,29.23
2023-05-22T10:43:02.093Z,27.70
2023-05-22T10:45:29.832Z,27.88
2023-05-22T10:48:09.913Z,26.17
2023-05-22T10:50:50.078Z,27.10
2023-05-22T10:53:28.350Z,28.35
2023-05-22T10:55:56.993Z,27.08
2023-05-22T10:58:28.918Z,28.05
2023-05-22T11:01:18.756Z,30.48
2023-05-22T11:04:06.724Z,29.35
2023-05-22T11:06:45.973Z,27.70
2023-05-22T11:09:29.727Z,30.67
2023-05-22T11:12:24.914Z,30.67
2023-05-22T11:15:09.595Z,27.77
2023-05-22T11:17:40.085Z,27.85
2023-05-22T11:20:18.697Z,26.00
2023-05-22T11:23:05.338Z,28.38
2023-05-22T11:25:38.421Z,29.73
2023-05-22T11:28:07.272Z,27.48
2023-05-22T11:30:35.310Z,30.15
2023-05-22T11:33:03.176Z,28.05
2023-05-22T11:35:31.245Z,29.65
2023-05-22T11:37:58.887Z,29.90
2023-05-22T11:40:29.604Z,26.85
2023-05-22T11:42:57.211Z,29.45
2023-05-22T11:45:24.730Z,25.55
2023-05-22T11:47:52.159Z,29.48
2023-05-22T11:50:33.389Z,26.23
2023-05-22T11:53:07.448Z,29.13
2023-05-22T11:55:35.057Z,27.73
2023-05-22T11:58:02.897Z,25.38
2023-05-22T12:00:31.813Z,25.50
2023-05-22T12:03:01.425Z,26.13
2023-05-22T12:05:31.396Z,25.00
2023-05-22T12:07:58.886Z,26.42
2023-05-22T12:10:26.340Z,26.20
2023-05-22T12:12:54.854Z,22.42
2023-05-22T12:15:22.327Z,27.55
2023-05-22T12:17:49.653Z,25.63
2023-05-22T12:20:17.117Z,27.25
2023-05-22T12:22:44.454Z,27.48
2023-05-22T12:25:20.150Z,25.83
2023-05-22T12:27:47.805Z,23.73
2023-05-22T12:30:15.719Z,24.40
2023-05-22T12:32:50.853Z,27.33
2023-05-22T12:35:18.932Z,25.02
2023-05-22T12:37:50.633Z,26.08
2023-05-22T12:40:18.180Z,28.73
2023-05-22T12:42:45.796Z,27.20
2023-05-22T12:45:13.774Z,26.55
2023-05-22T12:47:41.290Z,25.52
2023-05-22T12:50:09.252Z,22.63
2023-05-22T12:52:36.652Z,30.10
2023-05-22T12:55:04.466Z,25.35
2023-05-22T12:57:31.786Z,23.95
2023-05-22T12:59:59.306Z,22.98
2023-05-22T13:02:26.832Z,23.67
2023-05-22T13:04:54.152Z,23.92
2023-05-22T13:07:21.552Z,21.90
2023-05-22T13:09:48.961Z,22.65
2023-05-22T13:12:16.402Z,22.52
2023-05-22T13:14:43.657Z,23.27
2023-05-22T13:17:11.711Z,21.40
2023-05-22T13:19:39.156Z,20.98
2023-05-22T13:22:07.694Z,22.83
2023-05-22T13:24:35.053Z,25.70
2023-05-22T13:27:02.408Z,22.98
2023-05-22T13:29:29.736Z,23.88
2023-05-22T13:31:57.078Z,22.52
2023-05-22T13:34:24.652Z,22.73
2023-05-22T13:36:52.271Z,23.23
2023-05-22T13:39:19.501Z,22.55
2023-05-22T13:41:46.858Z,26.40
2023-05-22T13:44:14.317Z,23.58
2023-05-22T13:46:41.692Z,24.77
2023-05-22T13:49:09.068Z,22.77
2023-05-22T13:51:36.386Z,26.80
2023-05-22T13:54:04.304Z,24.95
2023-05-22T13:56:31.807Z,23.33
2023-05-22T13:58:59.126Z,25.65
2023-05-22T14:01:26.537Z,26.10
2023-05-22T14:03:53.840Z,27.27
2023-05-22T14:06:21.172Z,26.83
2023-05-22T14:08:48.738Z,24.88
2023-05-22T14:11:16.083Z,24.58
2023-05-22T14:13:43.614Z,23.92
2023-05-22T14:16:10.900Z,24.42
2023-05-22T14:18:38.277Z,26.10
2023-05-22T14:21:05.692Z,24.67
2023-05-22T14:23:32.960Z,25.98
2023-05-22T14:26:00.370Z,24.48
2023-05-22T14:28:27.789Z,23.23
2023-05-22T14:30:56.288Z,25.15
2023-05-22T14:33:23.654Z,24.80
2023-05-22T14:35:51.666Z,24.95
2023-05-22T14:38:18.880Z,25.13
2023-05-22T14:40:46.147Z,25.05
2023-05-22T14:43:13.502Z,27.70
2023-05-22T14:45:41.042Z,22.05
2023-05-22T14:48:11.025Z,24.73
2023-05-22T14:50:38.536Z,24.75
2023-05-22T14:53:05.814Z,26.88
2023-05-22T14:55:33.117Z,24.05
2023-05-22T14:58:00.420Z,21.83
2023-05-22T15:00:28.222Z,23.67
2023-05-22T15:02:55.727Z,23.92
2023-05-22T15:05:23.421Z,22.52
2023-05-22T15:07:51.698Z,24.13
2023-05-22T15:10:19.036Z,23.48
2023-05-22T15:12:46.308Z,25.00
2023-05-22T15:15:13.692Z,25.70
2023-05-22T15:17:42.896Z,26.77
2023-05-22T15:20:11.263Z,24.90
2023-05-22T15:22:39.333Z,27.17
2023-05-22T15:25:16.900Z,24.83
2023-05-22T15:27:44.263Z,23.55
2023-05-22T15:30:12.393Z,29.10
2023-05-22T15:32:39.791Z,26.30
2023-05-22T15:35:09.999Z,26.25
2023-05-22T15:37:37.330Z,24.10
2023-05-22T15:40:05.996Z,28.95
2023-05-22T15:42:33.298Z,27.15
2023-05-22T15:45:00.967Z,28.52
2023-05-22T15:47:29.638Z,27.05
2023-05-22T15:49:57.024Z,29.48
2023-05-22T15:52:24.661Z,29.35
2023-05-22T15:54:52.293Z,28.25
2023-05-22T15:57:19.940Z,31.13
2023-05-22T15:59:50.576Z,30.70
2023-05-22T16:02:19.309Z,30.55
2023-05-22T16:04:46.812Z,26.70
2023-05-22T16:07:14.183Z,33.67
2023-05-22T16:09:43.427Z,28.48
2023-05-22T16:12:10.969Z,31.17
2023-05-22T16:14:39.830Z,28.65
2023-05-22T16:17:07.498Z,29.02
2023-05-22T16:19:35.052Z,33.55
2023-05-22T16:22:03.105Z,27.75
2023-05-22T16:24:30.597Z,28.10
2023-05-22T16:26:59.816Z,26.73
2023-05-22T16:29:27.274Z,27.88
2023-05-22T16:31:57.439Z,29.42
2023-05-22T16:34:24.919Z,29.90
2023-05-22T16:36:52.184Z,30.55
2023-05-22T16:39:19.494Z,31.92
2023-05-22T16:41:46.798Z,30.63
2023-05-22T16:44:14.246Z,32.05
2023-05-22T16:46:41.545Z,29.98
2023-05-22T16:49:08.841Z,26.17
2023-05-22T16:51:36.486Z,28.38
2023-05-22T16:54:03.950Z,29.63
2023-05-22T16:56:34.059Z,29.05
2023-05-22T16:59:02.062Z,32.88
2023-05-22T17:01:29.857Z,29.98
2023-05-22T17:03:57.573Z,28.23
2023-05-22T17:06:24.976Z,32.83
2023-05-22T17:08:52.317Z,27.42
2023-05-22T17:11:19.587Z,35.10
2023-05-22T17:13:46.970Z,30.95
2023-05-22T17:16:14.395Z,36.78
2023-05-22T17:18:41.884Z,32.75
2023-05-22T17:21:09.409Z,30.95
2023-05-22T17:23:37.370Z,33.55
2023-05-22T17:26:04.901Z,31.63
2023-05-22T17:28:32.474Z,30.25
2023-05-22T17:30:59.862Z,29.95
2023-05-22T17:33:27.212Z,31.27
2023-05-22T17:35:54.897Z,30.67
2023-05-22T17:38:22.320Z,29.20
2023-05-22T17:40:50.026Z,30.02
2023-05-22T17:43:19.052Z,29.23
2023-05-22T17:45:50.011Z,28.45
2023-05-22T17:48:27.097Z,29.05
2023-05-22T17:50:55.353Z,29.92
2023-05-22T17:53:23.049Z,28.02
2023-05-22T17:55:55.102Z,29.15
2023-05-22T17:58:23.120Z,30.90
2023-05-22T18:00:50.797Z,30.67
2023-05-22T18:03:21.819Z,28.48
2023-05-22T18:05:50.451Z,23.98
2023-05-22T18:08:19.234Z,25.23
2023-05-22T18:10:46.800Z,27.15
2023-05-22T18:13:14.244Z,24.42
2023-05-22T18:15:41.665Z,24.52
2023-05-22T18:18:11.370Z,22.23
2023-05-22T18:20:40.544Z,18.90
2023-05-22T18:23:08.114Z,17.55
2023-05-22T18:25:35.418Z,13.40
2023-05-22T18:28:02.721Z,14.65
2023-05-22T18:30:30.297Z,15.18
2023-05-22T18:33:00.891Z,10.60
2023-05-22T18:35:33.774Z,11.57
2023-05-22T18:38:01.034Z,10.60
2023-05-22T18:40:28.351Z,10.65
2023-05-22T18:42:55.723Z,8.15
2023-05-22T18:45:23.213Z,8.20
2023-05-22T18:47:50.578Z,7.55
2023-05-22T18:50:18.016Z,7.75
2023-05-22T18:52:45.468Z,7.28
2023-05-22T18:55:13.486Z,7.28
2023-05-22T18:57:40.886Z,6.75
2023-05-22T19:00:10.359Z,6.57
2023-05-22T19:02:39.666Z,7.45
2023-05-22T19:05:07.768Z,7.05
2023-05-22T19:07:35.593Z,7.85
2023-05-22T19:10:05.457Z,6.55
2023-05-22T19:12:34.750Z,7.43
2023-05-22T19:15:02.987Z,6.15
2023-05-22T19:17:30.746Z,6.60
2023-05-22T19:19:58.519Z,7.47
2023-05-22T19:22:26.309Z,6.95
2023-05-22T19:24:54.010Z,6.95
2023-05-22T19:27:21.716Z,6.40
2023-05-22T19:29:49.371Z,6.80
2023-05-22T19:32:16.744Z,6.63
2023-05-22T19:34:44.225Z,6.15
2023-05-22T19:37:11.621Z,6.43
2023-05-22T19:39:39.208Z,7.03
2023-05-22T19:42:08.260Z,7.13
2023-05-22T19:44:35.684Z,7.05
2023-05-22T19:47:03.065Z,7.35
2023-05-22T19:49:31.684Z,7.45
2023-05-22T19:51:59.559Z,7.35
2023-05-22T19:54:26.915Z,7.65
2023-05-22T19:56:54.316Z,7.05
2023-05-22T19:59:21.816Z,7.32
2023-05-22T20:01:51.315Z,7.65
2023-05-22T20:04:20.180Z,8.50
2023-05-22T20:06:48.586Z,7.63
2023-05-22T20:09:16.477Z,7.72
2023-05-22T20:11:43.872Z,8.57
2023-05-22T20:14:13.245Z,7.40
2023-05-22T20:16:40.765Z,8.65
2023-05-22T20:19:09.138Z,8.93
2023-05-22T20:21:36.911Z,8.77
2023-05-22T20:24:12.026Z,9.07
2023-05-22T20:26:39.547Z,9.13
2023-05-22T20:29:06.978Z,9.25
2023-05-22T20:31:34.857Z,9.10
2023-05-22T20:34:04.098Z,8.48
2023-05-22T20:36:35.056Z,9.38
2023-05-22T20:39:02.644Z,8.98
2023-05-22T20:41:30.054Z,10.25
2023-05-22T20:43:58.783Z,10.10
2023-05-22T20:46:26.800Z,9.73
2023-05-22T20:48:54.711Z,9.32
2023-05-22T20:51:22.284Z,9.85
2023-05-22T20:53:54.245Z,10.38
2023-05-22T20:56:21.622Z,9.63
2023-05-22T20:58:48.998Z,10.35
2023-05-22T21:01:16.433Z,9.82
2023-05-22T21:03:43.844Z,9.27
2023-05-22T21:06:11.321Z,9.57
2023-05-22T21:08:38.703Z,9.48
2023-05-22T21:11:07.340Z,9.85
2023-05-22T21:13:38.225Z,10.38
2023-05-22T21:16:05.794Z,9.95
2023-05-22T21:18:33.184Z,10.27
2023-05-22T21:21:00.851Z,11.05
2023-05-22T21:23:28.202Z,10.27
2023-05-22T21:25:55.532Z,10.25
2023-05-22T21:28:22.965Z,10.65
2023-05-22T21:30:50.473Z,10.02
2023-05-22T21:33:17.918Z,9.95
2023-05-22T21:35:45.442Z,11.02
2023-05-22T21:38:13.026Z,10.27
2023-05-22T21:40:42.606Z,10.00
2023-05-22T21:43:10.295Z,8.65
2023-05-22T21:45:38.869Z,9.25
2023-05-22T21:48:06.295Z,8.75
2023-05-22T21:50:33.704Z,7.68
2023-05-22T21:53:01.021Z,8.77
2023-05-22T21:55:28.398Z,7.70
2023-05-22T21:57:56.342Z,8.23
2023-05-22T22:00:23.722Z,7.45
2023-05-22T22:02:51.091Z,7.18
2023-05-22T22:05:18.909Z,6.38
2023-05-22T22:07:46.272Z,6.65
2023-05-22T22:10:13.530Z,5.95
2023-05-22T22:12:41.086Z,5.30
2023-05-22T22:15:09.141Z,5.85
2023-05-22T22:17:37.239Z,5.32
2023-05-22T22:20:05.862Z,6.03
2023-05-22T22:22:33.167Z,5.05
2023-05-22T22:25:00.455Z,5.57
2023-05-22T22:27:27.772Z,5.10
2023-05-22T22:29:55.079Z,5.05
2023-05-22T22:32:22.361Z,4.65
2023-05-22T22:34:53.712Z,4.95
2023-05-22T22:37:21.929Z,5.57
2023-05-22T22:39:49.208Z,4.32
2023-05-22T22:42:16.635Z,4.40
2023-05-22T22:44:44.238Z,4.78
2023-05-22T22:47:11.559Z,4.43
2023-05-22T22:49:38.877Z,4.35
2023-05-22T22:52:06.185Z,4.45
2023-05-22T22:54:33.540Z,4.22
2023-05-22T22:57:00.909Z,5.47
2023-05-22T22:59:28.176Z,4.90
2023-05-22T23:01:55.552Z,5.50
2023-05-22T23:04:23.061Z,5.55
2023-05-22T23:06:50.349Z,5.53
2023-05-22T23:09:17.655Z,5.32
2023-05-22T23:11:44.904Z,5.47
2023-05-22T23:14:13.463Z,5.60
2023-05-22T23:16:41.271Z,6.38
2023-05-22T23:19:10.417Z,5.40
2023-05-22T23:21:37.747Z,5.50
2023-05-22T23:24:05.443Z,6.15
2023-05-22T23:26:33.595Z,5.20
2023-05-22T23:29:01.353Z,5.75
2023-05-22T23:31:30.762Z,5.47
2023-05-22T23:33:58.753Z,5.55
2023-05-22T23:36:26.278Z,6.10
2023-05-22T23:38:53.596Z,5.68
2023-05-22T23:41:20.870Z,5.28
2023-05-22T23:43:48.128Z,5.90
2023-05-22T23:46:15.357Z,5.65
2023-05-22T23:48:42.988Z,5.50
2023-05-22T23:51:14.433Z,5.30
2023-05-22T23:53:42.337Z,5.13
2023-05-22T23:56:09.702Z,5.60
2023-05-22T23:58:40.139Z,5.20
